sensor_id;sensor_type;location;lat;lon;timestamp;pressure;altitude;pressure_sealevel;temperature;humidity
17260;BME280;8746;49.230;9.220;2023-03-20T00:00:42;100168.31;;;8.71;100.00
17260;BME280;8746;49.230;9.220;2023-03-20T00:03:12;100168.44;;;8.66;100.00
17260;BME280;8746;49.230;9.220;2023-03-20T00:05:37;100175.50;;;8.64;100.00
17260;BME280;8746;49.230;9.220;2023-03-20T00:08:03;100171.13;;;8.65;100.00
17260;BME280;8746;49.230;9.220;2023-03-20T00:10:33;100165.34;;;8.52;100.00
17260;BME280;8746;49.230;9.220;2023-03-20T00:13:00;100166.19;;;8.53;100.00
17260;BME280;8746;49.230;9.220;2023-03-20T00:15:31;100173.19;;;8.54;100.00
17260;BME280;8746;49.230;9.220;2023-03-20T00:17:58;100180.25;;;8.52;100.00
17260;BME280;8746;49.230;9.220;2023-03-20T00:20:24;100188.16;;;8.52;100.00
17260;BME280;8746;49.230;9.220;2023-03-20T00:22:50;100187.41;;;8.46;100.00
17260;BME280;8746;49.230;9.220;2023-03-20T00:25:18;100194.31;;;8.50;100.00
17260;BME280;8746;49.230;9.220;2023-03-20T00:27:44;100190.84;;;8.48;100.00
17260;BME280;8746;49.230;9.220;2023-03-20T00:30:29;100196.84;;;8.54;100.00
17260;BME280;8746;49.230;9.220;2023-03-20T00:32:58;100193.56;;;8.45;100.00
17260;BME280;8746;49.230;9.220;2023-03-20T00:35:30;100192.66;;;8.46;100.00
17260;BME280;8746;49.230;9.220;2023-03-20T00:37:56;100198.78;;;8.47;100.00
17260;BME280;8746;49.230;9.220;2023-03-20T00:40:28;100193.44;;;8.50;100.00
17260;BME280;8746;49.230;9.220;2023-03-20T00:43:03;100196.09;;;8.48;100.00
17260;BME280;8746;49.230;9.220;2023-03-20T00:45:30;100197.91;;;8.46;100.00
17260;BME280;8746;49.230;9.220;2023-03-20T00:47:58;100193.53;;;8.47;100.00
17260;BME280;8746;49.230;9.220;2023-03-20T00:50:28;100195.28;;;8.46;100.00
17260;BME280;8746;49.230;9.220;2023-03-20T00:52:54;100189.91;;;8.51;100.00
17260;BME280;8746;49.230;9.220;2023-03-20T00:55:23;100190.00;;;8.48;100.00
17260;BME280;8746;49.230;9.220;2023-03-20T00:57:53;100188.16;;;8.50;100.00
17260;BME280;8746;49.230;9.220;2023-03-20T01:00:46;100189.91;;;8.51;100.00
17260;BME280;8746;49.230;9.220;2023-03-20T01:03:20;100188.16;;;8.50;100.00
17260;BME280;8746;49.230;9.220;2023-03-20T01:05:48;100196.88;;;8.52;100.00
17260;BME280;8746;49.230;9.220;2023-03-20T01:08:20;100194.38;;;8.47;100.00
17260;BME280;8746;49.230;9.220;2023-03-20T01:10:49;100190.78;;;8.52;100.00
17260;BME280;8746;49.230;9.220;2023-03-20T01:13:24;100193.31;;;8.55;100.00
17260;BME280;8746;49.230;9.220;2023-03-20T01:15:51;100188.88;;;8.57;100.00
17260;BME280;8746;49.230;9.220;2023-03-20T01:18:19;100186.25;;;8.57;100.00
17260;BME280;8746;49.230;9.220;2023-03-20T01:20:45;100189.00;;;8.52;100.00
17260;BME280;8746;49.230;9.220;2023-03-20T01:23:11;100185.66;;;8.47;100.00
17260;BME280;8746;49.230;9.220;2023-03-20T01:25:37;100188.88;;;8.57;100.00
17260;BME280;8746;49.230;9.220;2023-03-20T01:28:14;100199.22;;;8.63;100.00
17260;BME280;8746;49.230;9.220;2023-03-20T01:30:40;100190.69;;;8.55;100.00
17260;BME280;8746;49.230;9.220;2023-03-20T01:33:19;100193.34;;;8.53;100.00
17260;BME280;8746;49.230;9.220;2023-03-20T01:35:45;100199.53;;;8.52;100.00
17260;BME280;8746;49.230;9.220;2023-03-20T01:38:20;100197.84;;;8.49;100.00
17260;BME280;8746;49.230;9.220;2023-03-20T01:41:16;100196.88;;;8.52;100.00
17260;BME280;8746;49.230;9.220;2023-03-20T01:43:44;100201.06;;;8.59;100.00
17260;BME280;8746;49.230;9.220;2023-03-20T01:51:29;100203.59;;;8.62;100.00
17260;BME280;8746;49.230;9.220;2023-03-20T01:56:27;100203.59;;;8.62;100.00
17260;BME280;8746;49.230;9.220;2023-03-20T01:59:03;100205.44;;;8.60;100.00
17260;BME280;8746;49.230;9.220;2023-03-20T02:01:29;100206.28;;;8.61;100.00
17260;BME280;8746;49.230;9.220;2023-03-20T02:03:55;100204.47;;;8.63;100.00
17260;BME280;8746;49.230;9.220;2023-03-20T02:06:22;100208.00;;;8.62;100.00
17260;BME280;8746;49.230;9.220;2023-03-20T02:08:50;100213.22;;;8.63;100.00
17260;BME280;8746;49.230;9.220;2023-03-20T02:11:18;100219.38;;;8.64;100.00
17260;BME280;8746;49.230;9.220;2023-03-20T02:13:45;100224.56;;;8.65;100.00
17260;BME280;8746;49.230;9.220;2023-03-20T02:16:15;100221.13;;;8.63;100.00
17260;BME280;8746;49.230;9.220;2023-03-20T02:18:43;100228.28;;;8.58;100.00
17260;BME280;8746;49.230;9.220;2023-03-20T02:32:33;100215.47;;;8.77;100.00
17260;BME280;8746;49.230;9.220;2023-03-20T02:43:47;100218.53;;;8.62;100.00
17260;BME280;8746;49.230;9.220;2023-03-20T02:54:45;100215.78;;;8.66;100.00
17260;BME280;8746;49.230;9.220;2023-03-20T02:59:57;100218.25;;;8.73;100.00
17260;BME280;8746;49.230;9.220;2023-03-20T03:02:32;100218.41;;;8.66;100.00
17260;BME280;8746;49.230;9.220;2023-03-20T03:05:03;100218.34;;;8.68;100.00
17260;BME280;8746;49.230;9.220;2023-03-20T03:07:32;100217.22;;;8.77;100.00
17260;BME280;8746;49.230;9.220;2023-03-20T03:10:02;100222.59;;;8.74;100.00
17260;BME280;8746;49.230;9.220;2023-03-20T03:12:34;100219.75;;;8.81;100.00
17260;BME280;8746;49.230;9.220;2023-03-20T03:15:05;100226.13;;;8.73;100.00
17260;BME280;8746;49.230;9.220;2023-03-20T03:17:35;100221.72;;;8.73;100.00
17260;BME280;8746;49.230;9.220;2023-03-20T03:20:07;100232.00;;;8.82;100.00
17260;BME280;8746;49.230;9.220;2023-03-20T03:22:33;100219.13;;;8.72;100.00
17260;BME280;8746;49.230;9.220;2023-03-20T03:25:00;100221.81;;;8.70;100.00
17260;BME280;8746;49.230;9.220;2023-03-20T03:27:35;100221.13;;;8.63;100.00
17260;BME280;8746;49.230;9.220;2023-03-20T03:30:05;100230.44;;;8.75;100.00
17260;BME280;8746;49.230;9.220;2023-03-20T03:32:35;100224.41;;;8.72;100.00
17260;BME280;8746;49.230;9.220;2023-03-20T03:35:03;100226.91;;;8.76;100.00
17260;BME280;8746;49.230;9.220;2023-03-20T03:42:54;100228.81;;;8.71;100.00
17260;BME280;8746;49.230;9.220;2023-03-20T03:48:14;100228.16;;;8.63;100.00
17260;BME280;8746;49.230;9.220;2023-03-20T03:50:57;100234.16;;;8.68;100.00
17260;BME280;8746;49.230;9.220;2023-03-20T03:53:30;100243.16;;;8.59;100.00
17260;BME280;8746;49.230;9.220;2023-03-20T03:56:01;100232.41;;;8.67;100.00
17260;BME280;8746;49.230;9.220;2023-03-20T03:58:31;100234.91;;;8.72;100.00
17260;BME280;8746;49.230;9.220;2023-03-20T04:00:58;100233.25;;;8.69;100.00
17260;BME280;8746;49.230;9.220;2023-03-20T04:03:36;100238.84;;;8.57;100.00
17260;BME280;8746;49.230;9.220;2023-03-20T04:06:03;100243.22;;;8.56;100.00
17260;BME280;8746;49.230;9.220;2023-03-20T04:08:30;100237.16;;;8.54;100.00
17260;BME280;8746;49.230;9.220;2023-03-20T04:10:55;100237.94;;;8.58;100.00
17260;BME280;8746;49.230;9.220;2023-03-20T04:13:21;100237.66;;;8.67;100.00
17260;BME280;8746;49.230;9.220;2023-03-20T04:15:46;100238.63;;;8.64;100.00
17260;BME280;8746;49.230;9.220;2023-03-20T04:18:16;100233.13;;;8.74;100.00
17260;BME280;8746;49.230;9.220;2023-03-20T04:20:43;100232.34;;;8.70;100.00
17260;BME280;8746;49.230;9.220;2023-03-20T04:23:08;100224.34;;;8.75;100.00
17260;BME280;8746;49.230;9.220;2023-03-20T04:25:34;100233.13;;;8.72;100.00
17260;BME280;8746;49.230;9.220;2023-03-20T04:27:59;100223.63;;;8.68;100.00
17260;BME280;8746;49.230;9.220;2023-03-20T04:30:25;100237.66;;;8.69;100.00
17260;BME280;8746;49.230;9.220;2023-03-20T04:32:51;100236.88;;;8.65;100.00
17260;BME280;8746;49.230;9.220;2023-03-20T04:35:16;100235.94;;;8.68;100.00
17260;BME280;8746;49.230;9.220;2023-03-20T04:37:42;100239.63;;;8.60;100.00
17260;BME280;8746;49.230;9.220;2023-03-20T04:40:07;100237.78;;;8.64;100.00
17260;BME280;8746;49.230;9.220;2023-03-20T04:42:33;100237.66;;;8.69;100.00
17260;BME280;8746;49.230;9.220;2023-03-20T04:44:58;100253.38;;;8.70;100.00
17260;BME280;8746;49.230;9.220;2023-03-20T04:47:24;100256.09;;;8.67;100.00
17260;BME280;8746;49.230;9.220;2023-03-20T04:49:50;100262.00;;;8.75;100.00
17260;BME280;8746;49.230;9.220;2023-03-20T04:52:15;100250.47;;;8.79;100.00
17260;BME280;8746;49.230;9.220;2023-03-20T04:54:40;100258.66;;;8.70;100.00
17260;BME280;8746;49.230;9.220;2023-03-20T04:57:06;100258.72;;;8.67;100.00
17260;BME280;8746;49.230;9.220;2023-03-20T04:59:31;100266.44;;;8.73;100.00
17260;BME280;8746;49.230;9.220;2023-03-20T05:01:56;100265.81;;;8.65;100.00
17260;BME280;8746;49.230;9.220;2023-03-20T05:04:22;100275.41;;;8.66;100.00
17260;BME280;8746;49.230;9.220;2023-03-20T05:06:47;100267.44;;;8.69;100.00
17260;BME280;8746;49.230;9.220;2023-03-20T05:09:14;100265.72;;;8.68;100.00
17260;BME280;8746;49.230;9.220;2023-03-20T05:11:40;100269.16;;;8.70;100.00
17260;BME280;8746;49.230;9.220;2023-03-20T05:14:06;100265.19;;;8.87;100.00
17260;BME280;8746;49.230;9.220;2023-03-20T05:16:33;100276.31;;;8.65;100.00
17260;BME280;8746;49.230;9.220;2023-03-20T05:18:58;100271.19;;;8.60;100.00
17260;BME280;8746;49.230;9.220;2023-03-20T05:21:23;100269.34;;;8.64;100.00
17260;BME280;8746;49.230;9.220;2023-03-20T05:23:49;100267.78;;;8.57;100.00
17260;BME280;8746;49.230;9.220;2023-03-20T05:26:14;100276.41;;;8.62;100.00
17260;BME280;8746;49.230;9.220;2023-03-20T05:28:40;100272.59;;;8.72;100.00
17260;BME280;8746;49.230;9.220;2023-03-20T05:31:05;100272.53;;;8.75;100.00
17260;BME280;8746;49.230;9.220;2023-03-20T05:33:30;100265.66;;;8.70;100.00
17260;BME280;8746;49.230;9.220;2023-03-20T05:35:56;100270.97;;;8.68;100.00
17260;BME280;8746;49.230;9.220;2023-03-20T05:38:21;100274.13;;;8.81;100.00
17260;BME280;8746;49.230;9.220;2023-03-20T05:40:48;100283.06;;;8.75;100.00
17260;BME280;8746;49.230;9.220;2023-03-20T05:43:13;100285.97;;;8.64;100.00
17260;BME280;8746;49.230;9.220;2023-03-20T05:45:41;100288.34;;;8.74;100.00
17260;BME280;8746;49.230;9.220;2023-03-20T05:48:06;100289.50;;;8.63;100.00
17260;BME280;8746;49.230;9.220;2023-03-20T05:50:31;100298.91;;;8.72;100.00
17260;BME280;8746;49.230;9.220;2023-03-20T05:52:57;100298.06;;;8.72;100.00
17260;BME280;8746;49.230;9.220;2023-03-20T05:55:22;100294.81;;;8.62;100.00
17260;BME280;8746;49.230;9.220;2023-03-20T05:57:47;100303.25;;;8.75;100.00
17260;BME280;8746;49.230;9.220;2023-03-20T06:00:13;100291.00;;;8.72;100.00
17260;BME280;8746;49.230;9.220;2023-03-20T06:02:39;100292.94;;;8.98;100.00
17260;BME280;8746;49.230;9.220;2023-03-20T06:05:05;100295.03;;;8.86;100.00
17260;BME280;8746;49.230;9.220;2023-03-20T06:07:31;100300.22;;;8.89;100.00
17260;BME280;8746;49.230;9.220;2023-03-20T06:09:56;100300.41;;;8.82;100.00
17260;BME280;8746;49.230;9.220;2023-03-20T06:12:21;100298.59;;;8.85;100.00
17260;BME280;8746;49.230;9.220;2023-03-20T06:14:47;100293.28;;;8.86;100.00
17260;BME280;8746;49.230;9.220;2023-03-20T06:17:12;100298.66;;;8.81;100.00
17260;BME280;8746;49.230;9.220;2023-03-20T06:19:38;100292.78;;;8.72;100.00
17260;BME280;8746;49.230;9.220;2023-03-20T06:22:03;100286.25;;;8.87;100.00
17260;BME280;8746;49.230;9.220;2023-03-20T06:24:29;100286.78;;;9.00;100.00
17260;BME280;8746;49.230;9.220;2023-03-20T06:26:55;100296.75;;;8.87;100.00
17260;BME280;8746;49.230;9.220;2023-03-20T06:29:20;100297.03;;;8.77;100.00
17260;BME280;8746;49.230;9.220;2023-03-20T06:31:46;100292.75;;;8.73;100.00
17260;BME280;8746;49.230;9.220;2023-03-20T06:34:11;100301.06;;;8.91;100.00
17260;BME280;8746;49.230;9.220;2023-03-20T06:36:36;100299.03;;;8.99;100.00
17260;BME280;8746;49.230;9.220;2023-03-20T06:39:02;100298.25;;;8.97;100.00
17260;BME280;8746;49.230;9.220;2023-03-20T06:41:28;100298.66;;;8.81;100.00
17260;BME280;8746;49.230;9.220;2023-03-20T06:43:53;100297.06;;;9.07;100.00
17260;BME280;8746;49.230;9.220;2023-03-20T06:46:20;100294.25;;;9.13;100.00
17260;BME280;8746;49.230;9.220;2023-03-20T06:48:46;100290.06;;;9.06;100.00
17260;BME280;8746;49.230;9.220;2023-03-20T06:51:12;100290.06;;;9.06;100.00
17260;BME280;8746;49.230;9.220;2023-03-20T06:53:37;100303.13;;;9.11;100.00
17260;BME280;8746;49.230;9.220;2023-03-20T06:56:06;100310.88;;;9.16;100.00
17260;BME280;8746;49.230;9.220;2023-03-20T06:58:31;100320.09;;;9.01;100.00
17260;BME280;8746;49.230;9.220;2023-03-20T07:00:57;100323.28;;;9.12;100.00
17260;BME280;8746;49.230;9.220;2023-03-20T07:03:22;100327.03;;;9.03;100.00
17260;BME280;8746;49.230;9.220;2023-03-20T07:05:47;100336.09;;;8.91;100.00
17260;BME280;8746;49.230;9.220;2023-03-20T07:08:13;100336.28;;;8.85;100.00
17260;BME280;8746;49.230;9.220;2023-03-20T07:10:39;100334.50;;;8.86;100.00
17260;BME280;8746;49.230;9.220;2023-03-20T07:13:05;100342.16;;;8.95;100.00
17260;BME280;8746;49.230;9.220;2023-03-20T07:15:30;100334.03;;;9.04;100.00
17260;BME280;8746;49.230;9.220;2023-03-20T07:17:56;100332.41;;;8.98;100.00
17260;BME280;8746;49.230;9.220;2023-03-20T07:20:22;100333.00;;;9.08;100.00
17260;BME280;8746;49.230;9.220;2023-03-20T07:22:47;100336.59;;;9.37;99.99
17260;BME280;8746;49.230;9.220;2023-03-20T07:25:13;100333.63;;;9.18;100.00
17260;BME280;8746;49.230;9.220;2023-03-20T07:27:39;100326.16;;;9.34;100.00
17260;BME280;8746;49.230;9.220;2023-03-20T07:30:05;100335.97;;;9.29;99.94
17260;BME280;8746;49.230;9.220;2023-03-20T07:32:31;100337.69;;;9.30;100.00
17260;BME280;8746;49.230;9.220;2023-03-20T07:34:57;100328.13;;;9.26;100.00
17260;BME280;8746;49.230;9.220;2023-03-20T07:39:57;100337.19;;;9.47;99.36
17260;BME280;8746;49.230;9.220;2023-03-20T07:42:23;100329.88;;;9.57;99.51
17260;BME280;8746;49.230;9.220;2023-03-20T07:44:48;100331.06;;;9.76;98.39
17260;BME280;8746;49.230;9.220;2023-03-20T07:47:13;100339.56;;;9.85;97.67
17260;BME280;8746;49.230;9.220;2023-03-20T07:49:39;100332.59;;;9.84;96.53
17260;BME280;8746;49.230;9.220;2023-03-20T07:52:05;100336.69;;;9.64;97.39
17260;BME280;8746;49.230;9.220;2023-03-20T07:54:31;100334.66;;;9.74;97.02
17260;BME280;8746;49.230;9.220;2023-03-20T07:56:56;100339.47;;;9.59;97.32
17260;BME280;8746;49.230;9.220;2023-03-20T07:59:21;100339.72;;;9.80;96.72
17260;BME280;8746;49.230;9.220;2023-03-20T08:01:47;100337.72;;;9.58;97.35
17260;BME280;8746;49.230;9.220;2023-03-20T08:04:12;100341.69;;;9.43;97.96
17260;BME280;8746;49.230;9.220;2023-03-20T08:06:38;100348.72;;;9.43;97.66
17260;BME280;8746;49.230;9.220;2023-03-20T08:09:04;100348.94;;;9.35;98.05
17260;BME280;8746;49.230;9.220;2023-03-20T08:11:29;100344.34;;;9.42;98.22
17260;BME280;8746;49.230;9.220;2023-03-20T08:13:55;100350.53;;;9.41;98.29
17260;BME280;8746;49.230;9.220;2023-03-20T08:16:20;100345.72;;;9.55;97.76
17260;BME280;8746;49.230;9.220;2023-03-20T08:18:45;100344.69;;;9.61;97.72
17260;BME280;8746;49.230;9.220;2023-03-20T08:21:10;100340.41;;;9.57;97.40
17260;BME280;8746;49.230;9.220;2023-03-20T08:23:36;100344.16;;;9.78;96.41
17260;BME280;8746;49.230;9.220;2023-03-20T08:26:01;100342.38;;;9.78;95.51
17260;BME280;8746;49.230;9.220;2023-03-20T08:28:26;100343.47;;;9.73;96.48
17260;BME280;8746;49.230;9.220;2023-03-20T08:30:52;100342.69;;;9.69;96.39
17260;BME280;8746;49.230;9.220;2023-03-20T08:33:18;100338.00;;;10.07;95.05
17260;BME280;8746;49.230;9.220;2023-03-20T08:35:53;100344.69;;;9.89;96.04
17260;BME280;8746;49.230;9.220;2023-03-20T08:38:18;100342.56;;;10.02;95.00
17260;BME280;8746;49.230;9.220;2023-03-20T08:40:44;100345.06;;;10.05;95.35
17260;BME280;8746;49.230;9.220;2023-03-20T08:43:09;100347.81;;;10.02;95.91
17260;BME280;8746;49.230;9.220;2023-03-20T08:45:35;100350.97;;;10.14;95.10
17260;BME280;8746;49.230;9.220;2023-03-20T08:48:00;100351.44;;;9.98;95.20
17260;BME280;8746;49.230;9.220;2023-03-20T08:50:25;100357.22;;;9.83;96.60
17260;BME280;8746;49.230;9.220;2023-03-20T08:52:51;100360.63;;;9.86;96.47
17260;BME280;8746;49.230;9.220;2023-03-20T08:55:17;100369.28;;;9.90;96.45
17260;BME280;8746;49.230;9.220;2023-03-20T08:57:44;100363.06;;;9.92;96.45
17260;BME280;8746;49.230;9.220;2023-03-20T09:00:12;100364.09;;;9.87;96.67
17260;BME280;8746;49.230;9.220;2023-03-20T09:02:38;100355.97;;;10.23;95.51
17260;BME280;8746;49.230;9.220;2023-03-20T09:05:04;100358.44;;;10.27;94.67
17260;BME280;8746;49.230;9.220;2023-03-20T09:07:30;100357.78;;;10.21;95.14
17260;BME280;8746;49.230;9.220;2023-03-20T09:09:56;100365.69;;;10.21;94.81
17260;BME280;8746;49.230;9.220;2023-03-20T09:12:21;100359.31;;;10.28;94.53
17260;BME280;8746;49.230;9.220;2023-03-20T09:14:46;100365.81;;;10.46;93.94
17260;BME280;8746;49.230;9.220;2023-03-20T09:17:12;100360.44;;;10.74;92.46
17260;BME280;8746;49.230;9.220;2023-03-20T09:19:37;100360.72;;;10.92;92.13
17260;BME280;8746;49.230;9.220;2023-03-20T09:22:04;100364.50;;;11.10;90.89
17260;BME280;8746;49.230;9.220;2023-03-20T09:24:30;100361.84;;;10.85;90.75
17260;BME280;8746;49.230;9.220;2023-03-20T09:26:57;100369.88;;;10.82;90.72
17260;BME280;8746;49.230;9.220;2023-03-20T09:29:22;100362.81;;;11.33;88.98
17260;BME280;8746;49.230;9.220;2023-03-20T09:31:47;100365.03;;;10.95;89.13
17260;BME280;8746;49.230;9.220;2023-03-20T09:34:13;100371.44;;;10.61;90.04
17260;BME280;8746;49.230;9.220;2023-03-20T09:36:38;100379.44;;;10.31;92.53
17260;BME280;8746;49.230;9.220;2023-03-20T09:39:04;100389.22;;;10.27;93.49
17260;BME280;8746;49.230;9.220;2023-03-20T09:41:29;100382.19;;;9.99;94.51
17260;BME280;8746;49.230;9.220;2023-03-20T09:45:08;100384.63;;;10.05;94.08
17260;BME280;8746;49.230;9.220;2023-03-20T09:47:29;100386.00;;;9.89;95.46
17260;BME280;8746;49.230;9.220;2023-03-20T09:50:25;100388.47;;;9.95;95.69
17260;BME280;8746;49.230;9.220;2023-03-20T09:52:57;100392.00;;;9.94;94.84
17260;BME280;8746;49.230;9.220;2023-03-20T09:55:31;100388.34;;;9.98;94.84
17260;BME280;8746;49.230;9.220;2023-03-20T09:58:03;100388.34;;;9.98;94.88
17260;BME280;8746;49.230;9.220;2023-03-20T10:00:31;100389.69;;;9.83;95.38
17260;BME280;8746;49.230;9.220;2023-03-20T10:03:01;100396.56;;;9.89;95.71
17260;BME280;8746;49.230;9.220;2023-03-20T10:07:55;100390.28;;;9.93;95.28
17260;BME280;8746;49.230;9.220;2023-03-20T10:16:22;100396.03;;;9.77;95.24
17260;BME280;8746;49.230;9.220;2023-03-20T10:21:48;100392.63;;;9.72;95.82
17260;BME280;8746;49.230;9.220;2023-03-20T10:24:22;100396.94;;;9.76;95.32
17260;BME280;8746;49.230;9.220;2023-03-20T10:26:51;100391.50;;;9.81;95.55
17260;BME280;8746;49.230;9.220;2023-03-20T10:32:07;100393.88;;;9.90;94.33
17260;BME280;8746;49.230;9.220;2023-03-20T10:37:31;100387.41;;;10.01;93.40
17260;BME280;8746;49.230;9.220;2023-03-20T10:42:44;100390.06;;;9.99;93.93
17260;BME280;8746;49.230;9.220;2023-03-20T10:47:43;100381.00;;;10.09;93.24
17260;BME280;8746;49.230;9.220;2023-03-20T10:50:16;100387.88;;;10.14;92.87
17260;BME280;8746;49.230;9.220;2023-03-20T10:52:43;100386.47;;;10.03;92.56
17260;BME280;8746;49.230;9.220;2023-03-20T10:55:13;100381.91;;;10.08;92.74
17260;BME280;8746;49.230;9.220;2023-03-20T10:57:44;100386.28;;;10.08;92.93
17260;BME280;8746;49.230;9.220;2023-03-20T11:00:17;100383.78;;;10.05;92.82
17260;BME280;8746;49.230;9.220;2023-03-20T11:02:44;100378.19;;;10.14;93.72
17260;BME280;8746;49.230;9.220;2023-03-20T11:05:20;100381.44;;;10.24;92.35
17260;BME280;8746;49.230;9.220;2023-03-20T11:07:49;100377.06;;;10.23;92.13
17260;BME280;8746;49.230;9.220;2023-03-20T11:10:18;100386.03;;;10.46;91.48
17260;BME280;8746;49.230;9.220;2023-03-20T11:12:46;100383.09;;;10.55;90.23
17260;BME280;8746;49.230;9.220;2023-03-20T11:15:30;100379.06;;;10.43;90.10
17260;BME280;8746;49.230;9.220;2023-03-20T11:18:02;100390.13;;;10.54;90.43
17260;BME280;8746;49.230;9.220;2023-03-20T11:20:38;100386.34;;;10.36;89.89
17260;BME280;8746;49.230;9.220;2023-03-20T11:23:05;100387.81;;;10.45;90.44
17260;BME280;8746;49.230;9.220;2023-03-20T11:25:45;100387.47;;;10.81;89.21
17260;BME280;8746;49.230;9.220;2023-03-20T11:28:33;100384.53;;;11.16;86.10
17260;BME280;8746;49.230;9.220;2023-03-20T11:31:01;100379.03;;;11.69;83.78
17260;BME280;8746;49.230;9.220;2023-03-20T11:33:27;100374.91;;;11.86;82.39
17260;BME280;8746;49.230;9.220;2023-03-20T11:35:55;100376.06;;;12.47;80.10
17260;BME280;8746;49.230;9.220;2023-03-20T11:38:21;100372.16;;;11.89;80.41
17260;BME280;8746;49.230;9.220;2023-03-20T11:40:48;100375.25;;;11.77;81.63
17260;BME280;8746;49.230;9.220;2023-03-20T11:43:18;100369.44;;;11.67;82.90
17260;BME280;8746;49.230;9.220;2023-03-20T11:45:49;100371.09;;;11.93;81.63
17260;BME280;8746;49.230;9.220;2023-03-20T11:48:18;100365.03;;;11.67;81.89
17260;BME280;8746;49.230;9.220;2023-03-20T11:51:07;100359.06;;;11.38;82.39
17260;BME280;8746;49.230;9.220;2023-03-20T11:56:12;100355.84;;;11.54;80.52
17260;BME280;8746;49.230;9.220;2023-03-20T12:01:53;100354.69;;;11.37;80.11
17260;BME280;8746;49.230;9.220;2023-03-20T12:04:30;100350.75;;;11.26;81.65
17260;BME280;8746;49.230;9.220;2023-03-20T12:09:36;100339.31;;;11.49;80.15
17260;BME280;8746;49.230;9.220;2023-03-20T12:17:49;100334.31;;;11.65;78.85
17260;BME280;8746;49.230;9.220;2023-03-20T12:20:28;100338.47;;;11.94;79.20
17260;BME280;8746;49.230;9.220;2023-03-20T12:23:05;100333.19;;;11.94;76.05
17260;BME280;8746;49.230;9.220;2023-03-20T12:25:46;100321.50;;;12.00;74.02
17260;BME280;8746;49.230;9.220;2023-03-20T12:33:42;100320.97;;;12.14;72.67
17260;BME280;8746;49.230;9.220;2023-03-20T12:36:16;100321.75;;;12.16;71.36
17260;BME280;8746;49.230;9.220;2023-03-20T12:38:48;100317.13;;;12.43;71.11
17260;BME280;8746;49.230;9.220;2023-03-20T12:44:18;100315.06;;;12.91;69.34
17260;BME280;8746;49.230;9.220;2023-03-20T12:56:16;100310.63;;;12.92;70.76
17260;BME280;8746;49.230;9.220;2023-03-20T12:58:51;100310.56;;;12.93;70.12
17260;BME280;8746;49.230;9.220;2023-03-20T13:01:25;100306.03;;;12.95;69.51
17260;BME280;8746;49.230;9.220;2023-03-20T13:06:52;100289.19;;;13.57;68.15
17260;BME280;8746;49.230;9.220;2023-03-20T13:18:12;100273.06;;;13.03;66.90
17260;BME280;8746;49.230;9.220;2023-03-20T13:20:51;100271.41;;;13.00;67.79
17260;BME280;8746;49.230;9.220;2023-03-20T13:26:15;100260.28;;;13.31;66.58
17260;BME280;8746;49.230;9.220;2023-03-20T13:31:42;100254.69;;;13.76;64.35
17260;BME280;8746;49.230;9.220;2023-03-20T13:37:18;100255.47;;;13.21;64.52
17260;BME280;8746;49.230;9.220;2023-03-20T13:39:54;100246.25;;;13.29;65.30
17260;BME280;8746;49.230;9.220;2023-03-20T13:42:32;100247.63;;;13.57;64.44
17260;BME280;8746;49.230;9.220;2023-03-20T13:45:04;100244.47;;;13.49;63.83
17260;BME280;8746;49.230;9.220;2023-03-20T13:47:32;100243.63;;;13.49;62.98
17260;BME280;8746;49.230;9.220;2023-03-20T13:53:30;100237.63;;;13.05;63.25
17260;BME280;8746;49.230;9.220;2023-03-20T14:01:47;100228.28;;;13.36;63.42
17260;BME280;8746;49.230;9.220;2023-03-20T14:04:20;100229.66;;;13.45;63.17
17260;BME280;8746;49.230;9.220;2023-03-20T14:06:54;100225.16;;;13.47;62.05
17260;BME280;8746;49.230;9.220;2023-03-20T14:11:52;100227.50;;;13.53;62.45
17260;BME280;8746;49.230;9.220;2023-03-20T14:14:45;100219.59;;;13.33;61.60
17260;BME280;8746;49.230;9.220;2023-03-20T14:17:25;100220.16;;;13.41;60.16
17260;BME280;8746;49.230;9.220;2023-03-20T14:19:53;100217.19;;;13.47;60.49
17260;BME280;8746;49.230;9.220;2023-03-20T14:22:38;100215.19;;;13.52;59.83
17260;BME280;8746;49.230;9.220;2023-03-20T14:25:07;100212.88;;;13.44;60.07
17260;BME280;8746;49.230;9.220;2023-03-20T14:27:59;100217.19;;;13.47;61.01
17260;BME280;8746;49.230;9.220;2023-03-20T14:32:59;100215.31;;;13.86;60.51
17260;BME280;8746;49.230;9.220;2023-03-20T14:35:27;100211.50;;;13.91;59.91
17260;BME280;8746;49.230;9.220;2023-03-20T14:40:27;100203.66;;;13.53;60.07
17260;BME280;8746;49.230;9.220;2023-03-20T14:43:00;100207.56;;;13.44;60.81
17260;BME280;8746;49.230;9.220;2023-03-20T14:53:16;100202.94;;;13.50;61.17
17260;BME280;8746;49.230;9.220;2023-03-20T15:01:04;100195.69;;;13.34;61.77
17260;BME280;8746;49.230;9.220;2023-03-20T15:03:31;100191.81;;;13.22;61.51
17260;BME280;8746;49.230;9.220;2023-03-20T15:06:00;100185.25;;;13.12;61.21
17260;BME280;8746;49.230;9.220;2023-03-20T15:08:31;100188.31;;;13.22;61.15
17260;BME280;8746;49.230;9.220;2023-03-20T15:11:02;100194.03;;;13.31;61.62
17260;BME280;8746;49.230;9.220;2023-03-20T15:13:32;100182.72;;;13.09;60.32
17260;BME280;8746;49.230;9.220;2023-03-20T15:16:06;100183.81;;;13.05;60.61
17260;BME280;8746;49.230;9.220;2023-03-20T15:18:41;100187.03;;;12.92;61.56
17260;BME280;8746;49.230;9.220;2023-03-20T15:21:19;100190.53;;;13.12;62.16
17260;BME280;8746;49.230;9.220;2023-03-20T15:23:46;100181.28;;;13.02;61.56
17260;BME280;8746;49.230;9.220;2023-03-20T15:26:17;100190.75;;;13.26;61.56
17260;BME280;8746;49.230;9.220;2023-03-20T15:28:44;100182.44;;;13.15;60.39
17260;BME280;8746;49.230;9.220;2023-03-20T15:31:25;100195.81;;;12.93;59.78
17260;BME280;8746;49.230;9.220;2023-03-20T15:33:51;100199.69;;;12.86;60.06
17260;BME280;8746;49.230;9.220;2023-03-20T15:36:19;100198.59;;;12.71;60.30
17260;BME280;8746;49.230;9.220;2023-03-20T15:38:47;100195.31;;;12.65;59.77
17260;BME280;8746;49.230;9.220;2023-03-20T15:41:46;100202.59;;;12.79;59.77
17260;BME280;8746;49.230;9.220;2023-03-20T15:46:49;100200.91;;;12.97;58.51
17260;BME280;8746;49.230;9.220;2023-03-20T15:49:19;100199.72;;;13.05;60.26